createdAt,value
2022-08-16T00:03:13.651Z,98101.11
2022-08-16T00:06:21.229Z,98097.30
2022-08-16T00:09:27.584Z,98094.84
2022-08-16T00:12:34.713Z,98090.32
2022-08-16T00:15:51.986Z,98088.84
2022-08-16T00:19:01.141Z,98085.08
2022-08-16T00:22:12.983Z,98089.63
2022-08-16T00:26:33.438Z,98087.13
2022-08-16T00:28:49.541Z,98088.98
2022-08-16T00:32:05.934Z,98092.67
2022-08-16T00:35:16.306Z,98093.14
2022-08-16T00:38:40.514Z,98095.25
2022-08-16T00:41:50.005Z,98092.48
2022-08-16T00:45:00.590Z,98094.05
2022-08-16T00:48:30.308Z,98088.11
2022-08-16T00:51:38.677Z,98083.45
2022-08-16T00:54:44.906Z,98081.45
2022-08-16T00:58:00.145Z,98085.14
2022-08-16T01:01:08.828Z,98088.69
2022-08-16T01:04:29.341Z,98094.54
2022-08-16T01:07:50.713Z,98094.64
2022-08-16T01:11:00.077Z,98093.90
2022-08-16T01:14:13.610Z,98091.88
2022-08-16T01:17:21.069Z,98092.34
2022-08-16T01:20:35.018Z,98092.45
2022-08-16T01:23:57.990Z,98094.23
2022-08-16T01:27:15.021Z,98097.52
2022-08-16T01:30:26.344Z,98102.65
2022-08-16T01:33:33.256Z,98106.13
2022-08-16T01:36:39.895Z,98109.56
2022-08-16T01:39:47.320Z,98110.52
2022-08-16T01:42:55.332Z,98108.39
2022-08-16T01:46:37.748Z,98105.23
2022-08-16T01:50:40.599Z,98105.77
2022-08-16T01:52:59.075Z,98108.02
2022-08-16T01:56:07.111Z,98104.35
2022-08-16T01:59:16.965Z,98104.67
2022-08-16T02:02:27.503Z,98099.69
2022-08-16T02:05:34.981Z,98096.08
2022-08-16T02:08:41.072Z,98093.48
2022-08-16T02:11:52.903Z,98094.00
2022-08-16T02:15:00.196Z,98097.30
2022-08-16T02:18:08.427Z,98095.75
2022-08-16T02:21:31.264Z,98097.95
2022-08-16T02:24:41.118Z,98097.61
2022-08-16T02:27:51.102Z,98097.05
2022-08-16T02:31:00.003Z,98088.48
2022-08-16T02:34:08.217Z,98086.73
2022-08-16T02:37:20.865Z,98086.67
2022-08-16T02:40:28.417Z,98089.01
2022-08-16T02:43:37.786Z,98091.45
2022-08-16T02:46:49.725Z,98089.44
2022-08-16T02:50:52.290Z,98085.65
2022-08-16T02:53:23.813Z,98087.75
2022-08-16T02:56:32.048Z,98086.83
2022-08-16T02:59:41.498Z,98083.91
2022-08-16T03:02:48.137Z,98087.40
2022-08-16T03:06:02.466Z,98090.39
2022-08-16T03:09:29.905Z,98091.77
2022-08-16T03:12:55.493Z,98091.33
2022-08-16T03:16:02.859Z,98093.82
2022-08-16T03:19:09.572Z,98091.03
2022-08-16T03:22:18.912Z,98094.80
2022-08-16T03:25:41.189Z,98093.04
2022-08-16T03:28:51.099Z,98094.95
2022-08-16T03:31:58.979Z,98097.06
2022-08-16T03:35:06.538Z,98101.88
2022-08-16T03:38:34.565Z,98099.48
2022-08-16T03:41:50.550Z,98100.27
2022-08-16T03:45:03.800Z,98097.95
2022-08-16T03:48:15.151Z,98107.82
2022-08-16T03:51:25.893Z,98108.49
2022-08-16T03:54:31.909Z,98109.40
2022-08-16T03:57:42.162Z,98111.61
2022-08-16T04:00:59.407Z,98114.98
2022-08-16T04:04:06.107Z,98115.14
2022-08-16T04:07:15.071Z,98119.21
2022-08-16T04:10:35.855Z,98116.36
2022-08-16T04:14:00.625Z,98115.48
2022-08-16T04:17:09.777Z,98114.38
2022-08-16T04:20:29.527Z,98117.90
2022-08-16T04:23:40.026Z,98120.20
2022-08-16T04:26:46.769Z,98117.73
2022-08-16T04:29:53.105Z,98115.42
2022-08-16T04:33:09.945Z,98117.42
2022-08-16T04:36:20.166Z,98122.05
2022-08-16T04:39:46.242Z,98123.55
2022-08-16T04:42:54.789Z,98120.63
2022-08-16T04:46:03.191Z,98123.80
2022-08-16T04:49:09.896Z,98128.61
2022-08-16T04:52:32.852Z,98126.46
2022-08-16T04:55:41.671Z,98122.84
2022-08-16T04:58:48.222Z,98128.49
2022-08-16T05:01:58.767Z,98126.68
2022-08-16T05:05:06.405Z,98127.02
2022-08-16T05:08:29.720Z,98128.01
2022-08-16T05:11:36.764Z,98129.23
2022-08-16T05:14:46.509Z,98131.55
2022-08-16T05:18:07.755Z,98130.83
2022-08-16T05:21:23.388Z,98131.55
2022-08-16T05:24:29.632Z,98132.54
2022-08-16T05:27:43.031Z,98133.13
2022-08-16T05:30:51.390Z,98129.27
2022-08-16T05:33:57.650Z,98128.95
2022-08-16T05:37:04.558Z,98131.77
2022-08-16T05:40:14.375Z,98136.40
2022-08-16T05:43:21.518Z,98138.69
2022-08-16T05:46:30.226Z,98140.09
2022-08-16T05:49:39.619Z,98138.92
2022-08-16T05:52:46.524Z,98138.19
2022-08-16T05:55:53.214Z,98139.47
2022-08-16T05:58:59.800Z,98144.38
2022-08-16T06:02:06.408Z,98140.63
2022-08-16T06:05:14.558Z,98140.36
2022-08-16T06:08:31.496Z,98138.02
2022-08-16T06:11:39.038Z,98143.52
2022-08-16T06:14:49.633Z,98146.39
2022-08-16T06:17:59.022Z,98150.96
2022-08-16T06:21:06.747Z,98155.45
2022-08-16T06:24:52.778Z,98163.61
2022-08-16T06:27:41.994Z,98167.52
2022-08-16T06:31:03.999Z,98167.81
2022-08-16T06:34:55.778Z,98166.84
2022-08-16T06:37:37.802Z,98171.45
2022-08-16T06:40:47.931Z,98175.01
2022-08-16T06:43:56.611Z,98174.88
2022-08-16T06:47:03.061Z,98179.17
2022-08-16T06:50:10.939Z,98182.69
2022-08-16T06:53:29.662Z,98182.46
2022-08-16T06:56:36.428Z,98186.58
2022-08-16T06:59:52.496Z,98183.09
2022-08-16T07:03:04.263Z,98178.76
2022-08-16T07:06:31.547Z,98176.54
2022-08-16T07:09:37.975Z,98178.67
2022-08-16T07:12:47.392Z,98186.43
2022-08-16T07:16:15.444Z,98190.30
2022-08-16T07:19:21.694Z,98193.23
2022-08-16T07:22:52.660Z,98196.10
2022-08-16T07:26:05.948Z,98197.73
2022-08-16T07:29:12.151Z,98197.55
2022-08-16T07:32:20.980Z,98198.45
2022-08-16T07:35:36.321Z,98198.50
2022-08-16T07:38:43.551Z,98203.58
2022-08-16T07:41:51.562Z,98208.60
2022-08-16T07:44:59.475Z,98207.52
2022-08-16T07:48:11.821Z,98204.88
2022-08-16T07:51:18.966Z,98206.66
2022-08-16T07:54:32.347Z,98207.71
2022-08-16T07:58:00.958Z,98208.35
2022-08-16T08:01:12.674Z,98203.67
2022-08-16T08:04:21.696Z,98201.83
2022-08-16T08:07:29.329Z,98205.59
2022-08-16T08:10:38.954Z,98206.31
2022-08-16T08:13:45.124Z,98202.00
2022-08-16T08:16:51.994Z,98209.42
2022-08-16T08:19:59.339Z,98209.85
2022-08-16T08:23:06.027Z,98216.40
2022-08-16T08:26:17.392Z,98224.29
2022-08-16T08:29:36.877Z,98224.09
2022-08-16T08:32:58.489Z,98221.84
2022-08-16T08:36:11.698Z,98222.70
2022-08-16T08:39:28.082Z,98219.45
2022-08-16T08:42:34.354Z,98218.78
2022-08-16T08:45:47.202Z,98219.86
2022-08-16T08:48:59.686Z,98215.26
2022-08-16T08:52:09.553Z,98216.60
2022-08-16T08:55:17.038Z,98222.90
2022-08-16T08:58:23.137Z,98224.34
2022-08-16T09:01:36.513Z,98223.23
2022-08-16T09:04:43.355Z,98220.15
2022-08-16T09:08:01.037Z,98222.54
2022-08-16T09:11:08.195Z,98225.73
2022-08-16T09:14:24.219Z,98230.66
2022-08-16T09:17:49.060Z,98229.46
2022-08-16T09:21:01.791Z,98225.98
2022-08-16T09:24:09.818Z,98222.20
2022-08-16T09:27:16.295Z,98224.05
2022-08-16T09:30:34.728Z,98225.05
2022-08-16T09:33:52.041Z,98226.39
2022-08-16T09:37:00.301Z,98224.96
2022-08-16T09:40:31.681Z,98225.56
2022-08-16T09:43:59.703Z,98226.98
2022-08-16T09:47:03.514Z,98226.49
2022-08-16T09:50:22.921Z,98226.48
2022-08-16T09:53:30.313Z,98226.47
2022-08-16T09:56:39.137Z,98223.70
2022-08-16T09:59:45.381Z,98225.63
2022-08-16T10:02:52.811Z,98224.91
2022-08-16T10:05:59.019Z,98220.58
2022-08-16T10:09:06.790Z,98222.52
2022-08-16T10:12:32.381Z,98221.15
2022-08-16T10:15:41.745Z,98218.64
2022-08-16T10:19:00.748Z,98216.86
2022-08-16T10:22:12.807Z,98221.35
2022-08-16T10:27:19.484Z,98217.98
2022-08-16T10:28:45.736Z,98216.63
2022-08-16T10:31:56.536Z,98218.36
2022-08-16T10:35:03.883Z,98221.50
2022-08-16T10:38:10.094Z,98222.96
2022-08-16T10:41:33.853Z,98221.38
2022-08-16T10:44:40.027Z,98215.62
2022-08-16T10:48:00.484Z,98210.96
2022-08-16T10:51:10.399Z,98204.02
2022-08-16T10:54:29.097Z,98198.13
2022-08-16T10:57:36.404Z,98200.06
2022-08-16T11:00:46.314Z,98202.23
2022-08-16T11:03:54.505Z,98199.77
2022-08-16T11:07:08.684Z,98200.86
2022-08-16T11:14:10.761Z,98187.48
2022-08-16T11:17:18.494Z,98186.38
2022-08-16T11:20:48.954Z,98190.29
2022-08-16T11:23:58.190Z,98183.48
2022-08-16T11:27:23.314Z,98189.48
2022-08-16T11:30:39.378Z,98195.83
2022-08-16T11:33:53.253Z,98197.35
2022-08-16T11:37:00.993Z,98192.00
2022-08-16T11:40:09.925Z,98188.29
2022-08-16T11:43:20.358Z,98191.05
2022-08-16T11:46:45.345Z,98190.41
2022-08-16T11:49:53.140Z,98190.94
2022-08-16T11:52:59.297Z,98192.59
2022-08-16T11:56:09.291Z,98190.11
2022-08-16T11:59:16.017Z,98189.10
2022-08-16T12:02:31.589Z,98180.89
2022-08-16T12:05:40.517Z,98174.07
2022-08-16T12:08:48.982Z,98159.11
2022-08-16T12:11:55.412Z,98159.69
2022-08-16T12:15:01.964Z,98154.77
2022-08-16T12:18:09.529Z,98152.44
2022-08-16T12:21:15.741Z,98147.20
2022-08-16T12:24:26.311Z,98137.77
2022-08-16T12:27:33.214Z,98134.14
2022-08-16T12:30:43.809Z,98136.67
2022-08-16T12:33:50.767Z,98142.26
2022-08-16T12:37:05.674Z,98142.00
2022-08-16T12:40:23.917Z,98145.16
2022-08-16T12:43:31.486Z,98152.86
2022-08-16T12:46:37.717Z,98161.02
2022-08-16T12:49:45.246Z,98164.73
2022-08-16T12:52:53.443Z,98160.55
2022-08-16T12:55:59.797Z,98155.66
2022-08-16T12:59:16.838Z,98143.39
2022-08-16T13:02:33.444Z,98132.14
2022-08-16T13:05:47.751Z,98128.27
2022-08-16T13:09:02.575Z,98124.52
2022-08-16T13:12:21.094Z,98126.53
2022-08-16T13:15:30.197Z,98138.06
2022-08-16T13:18:38.422Z,98146.90
2022-08-16T13:21:45.155Z,98155.35
2022-08-16T13:24:56.630Z,98157.52
2022-08-16T13:28:06.340Z,98153.17
2022-08-16T13:31:12.470Z,98148.72
2022-08-16T13:34:22.147Z,98140.10
2022-08-16T13:37:28.314Z,98132.45
2022-08-16T13:40:34.659Z,98134.89
2022-08-16T13:43:42.022Z,98137.63
2022-08-16T13:46:48.778Z,98143.29
2022-08-16T13:49:57.167Z,98140.98
2022-08-16T13:53:04.289Z,98147.94
2022-08-16T13:56:11.591Z,98147.08
2022-08-16T13:59:31.153Z,98153.05
2022-08-16T14:02:41.081Z,98143.77
2022-08-16T14:05:47.344Z,98137.52
2022-08-16T14:09:06.670Z,98137.33
2022-08-16T14:12:22.208Z,98130.56
2022-08-16T14:15:28.704Z,98126.46
2022-08-16T14:18:38.178Z,98126.52
2022-08-16T14:22:13.444Z,98134.77
2022-08-16T14:25:18.627Z,98144.52
2022-08-16T14:28:25.786Z,98154.41
2022-08-16T14:31:35.012Z,98160.60
2022-08-16T14:34:45.479Z,98170.00
2022-08-16T14:37:57.025Z,98173.39
2022-08-16T14:41:03.576Z,98189.23
2022-08-16T14:44:13.156Z,98202.80
2022-08-16T14:47:20.759Z,98212.92
2022-08-16T14:50:28.738Z,98211.81
2022-08-16T14:53:35.029Z,98210.01
2022-08-16T14:56:46.651Z,98211.66
2022-08-16T15:00:05.784Z,98210.59
2022-08-16T15:03:12.973Z,98207.55
2022-08-16T15:06:20.515Z,98211.89
2022-08-16T15:09:26.998Z,98208.65
2022-08-16T15:12:36.346Z,98204.80
2022-08-16T15:15:44.193Z,98208.02
2022-08-16T15:18:58.923Z,98209.85
2022-08-16T15:22:05.430Z,98210.75
2022-08-16T15:25:14.556Z,98210.84
2022-08-16T15:28:30.678Z,98208.70
2022-08-16T15:31:41.554Z,98210.34
2022-08-16T15:34:50.334Z,98208.23
2022-08-16T15:37:56.752Z,98205.31
2022-08-16T15:41:03.572Z,98209.00
2022-08-16T15:44:13.336Z,98207.70
2022-08-16T15:47:19.779Z,98203.39
2022-08-16T15:50:25.950Z,98198.61
2022-08-16T15:53:32.453Z,98193.25
2022-08-16T15:56:51.649Z,98201.30
2022-08-16T16:00:04.597Z,98210.14
2022-08-16T16:03:15.047Z,98211.86
2022-08-16T16:06:21.465Z,98214.05
2022-08-16T16:09:37.138Z,98220.27
2022-08-16T16:12:51.127Z,98217.03
2022-08-16T16:16:03.256Z,98213.64
2022-08-16T16:19:09.645Z,98216.42
2022-08-16T16:22:17.537Z,98216.36
2022-08-16T16:25:24.619Z,98219.45
2022-08-16T16:29:06.290Z,98216.08
2022-08-16T16:32:00.188Z,98217.48
2022-08-16T16:35:07.406Z,98217.88
2022-08-16T16:38:14.295Z,98217.15
2022-08-16T16:41:25.158Z,98215.94
2022-08-16T16:44:36.316Z,98215.47
2022-08-16T16:47:44.913Z,98215.31
2022-08-16T16:50:51.741Z,98219.85
2022-08-16T16:54:00.393Z,98222.36
2022-08-16T16:57:26.802Z,98223.23
2022-08-16T17:00:38.585Z,98224.39
2022-08-16T17:03:45.029Z,98222.85
2022-08-16T17:07:00.093Z,98223.55
2022-08-16T17:10:06.967Z,98227.79
2022-08-16T17:13:14.779Z,98233.10
2022-08-16T17:16:21.988Z,98236.20
2022-08-16T17:19:41.313Z,98235.95
2022-08-16T17:22:54.566Z,98243.20
2022-08-16T17:26:01.032Z,98246.36
2022-08-16T17:29:11.650Z,98244.24
2022-08-16T17:32:33.780Z,98240.48
2022-08-16T17:35:55.714Z,98243.14
2022-08-16T17:39:02.219Z,98243.58
2022-08-16T17:42:15.939Z,98248.34
2022-08-16T17:45:22.763Z,98251.16
2022-08-16T17:48:31.191Z,98260.45
2022-08-16T17:51:37.345Z,98257.02
2022-08-16T17:54:45.328Z,98256.11
2022-08-16T17:57:52.379Z,98256.90
2022-08-16T18:01:01.831Z,98259.10
2022-08-16T18:04:10.015Z,98258.52
2022-08-16T18:07:16.372Z,98261.10
2022-08-16T18:10:32.875Z,98265.06
2022-08-16T18:13:43.453Z,98264.95
2022-08-16T18:16:49.666Z,98263.52
2022-08-16T18:19:55.704Z,98262.38
2022-08-16T18:23:12.387Z,98265.69
2022-08-16T18:26:21.572Z,98269.38
2022-08-16T18:29:27.656Z,98269.64
2022-08-16T18:32:34.454Z,98265.61
2022-08-16T18:35:40.775Z,98266.37
2022-08-16T18:38:46.818Z,98268.23
2022-08-16T18:41:52.934Z,98269.25
2022-08-16T18:44:59.098Z,98267.17
2022-08-16T18:48:05.778Z,98267.98
2022-08-16T18:51:18.241Z,98271.94
2022-08-16T18:54:28.306Z,98274.65
2022-08-16T18:57:34.378Z,98272.59
2022-08-16T19:00:56.817Z,98268.20
2022-08-16T19:04:03.299Z,98276.77
2022-08-16T19:07:09.475Z,98282.95
2022-08-16T19:10:15.583Z,98287.61
2022-08-16T19:13:24.329Z,98292.91
2022-08-16T19:16:30.575Z,98295.94
2022-08-16T19:19:36.696Z,98293.58
2022-08-16T19:26:24.446Z,98295.68
2022-08-16T19:29:32.424Z,98299.14
2022-08-16T19:32:39.422Z,98306.71
2022-08-16T19:35:45.913Z,98310.11
2022-08-16T19:38:52.066Z,98310.73
2022-08-16T19:42:00.197Z,98311.15
2022-08-16T19:45:08.164Z,98310.31
2022-08-16T19:48:14.327Z,98310.96
2022-08-16T19:51:20.616Z,98313.48
2022-08-16T19:54:26.870Z,98317.15
2022-08-16T19:57:33.423Z,98319.37
2022-08-16T20:00:43.304Z,98323.09
2022-08-16T20:03:49.788Z,98332.02
2022-08-16T20:06:56.379Z,98337.20
2022-08-16T20:10:03.245Z,98342.48
2022-08-16T20:13:14.884Z,98341.73
2022-08-16T20:16:20.959Z,98344.90
2022-08-16T20:19:28.233Z,98344.56
2022-08-16T20:22:52.865Z,98354.16
2022-08-16T20:26:01.015Z,98357.63
2022-08-16T20:29:07.335Z,98363.08
2022-08-16T20:32:16.343Z,98367.45
2022-08-16T20:35:25.779Z,98370.44
2022-08-16T20:38:31.954Z,98367.95
2022-08-16T20:41:38.158Z,98375.85
2022-08-16T20:44:45.139Z,98376.77
2022-08-16T20:47:51.361Z,98376.91
2022-08-16T20:50:59.975Z,98380.78
2022-08-16T20:54:06.324Z,98383.99
2022-08-16T20:57:13.186Z,98382.46
2022-08-16T21:00:20.412Z,98382.86
2022-08-16T21:03:26.786Z,98382.73
2022-08-16T21:06:32.920Z,98385.38
2022-08-16T21:09:39.547Z,98388.54
2022-08-16T21:12:53.152Z,98390.16
2022-08-16T21:16:00.115Z,98390.02
2022-08-16T21:19:06.348Z,98394.32
2022-08-16T21:22:20.617Z,98395.90
2022-08-16T21:25:27.311Z,98398.82
2022-08-16T21:28:41.688Z,98398.08
2022-08-16T21:31:49.407Z,98398.15
2022-08-16T21:34:55.578Z,98395.47
2022-08-16T21:38:28.856Z,98397.45
2022-08-16T21:41:28.096Z,98398.45
2022-08-16T21:44:38.504Z,98395.92
2022-08-16T21:47:45.743Z,98391.86
2022-08-16T21:50:51.831Z,98389.65
2022-08-16T21:53:58.096Z,98389.50
2022-08-16T21:57:10.185Z,98381.03
2022-08-16T22:00:19.337Z,98380.96
2022-08-16T22:03:25.932Z,98380.85
2022-08-16T22:06:32.151Z,98375.69
2022-08-16T22:09:38.219Z,98375.20
2022-08-16T22:12:44.414Z,98369.40
2022-08-16T22:15:51.888Z,98366.70
2022-08-16T22:18:58.096Z,98369.27
2022-08-16T22:22:04.810Z,98366.11
2022-08-16T22:25:11.889Z,98370.75
2022-08-16T22:28:18.965Z,98372.69
2022-08-16T22:31:25.486Z,98370.34
2022-08-16T22:34:31.775Z,98370.02
2022-08-16T22:37:37.896Z,98368.27
2022-08-16T22:40:44.790Z,98364.04
2022-08-16T22:43:50.918Z,98362.39
2022-08-16T22:46:57.415Z,98363.31
2022-08-16T22:50:03.544Z,98357.68
2022-08-16T22:53:10.493Z,98354.83
2022-08-16T22:56:17.760Z,98352.70
2022-08-16T22:59:25.050Z,98353.75
2022-08-16T23:02:31.228Z,98351.70
2022-08-16T23:05:40.071Z,98350.02
2022-08-16T23:08:46.891Z,98343.27
2022-08-16T23:11:53.436Z,98342.34
2022-08-16T23:15:02.939Z,98346.47
2022-08-16T23:18:10.490Z,98351.08
2022-08-16T23:21:19.305Z,98349.53
2022-08-16T23:24:25.475Z,98355.13
2022-08-16T23:27:31.653Z,98351.22
2022-08-16T23:30:40.686Z,98345.26
2022-08-16T23:33:47.008Z,98342.11
2022-08-16T23:36:53.320Z,98344.35
2022-08-16T23:39:59.563Z,98344.48
2022-08-16T23:43:07.817Z,98334.77
2022-08-16T23:46:17.014Z,98335.91
2022-08-16T23:49:56.713Z,98337.77
2022-08-16T23:53:05.439Z,98338.38
2022-08-16T23:56:14.142Z,98346.31
2022-08-16T23:59:20.198Z,98348.38
